sensor_id;sensor_type;location;lat;lon;timestamp;P1;durP1;ratioP1;P2;durP2;ratioP2
74293;SDS011;62688;59.904;10.738;2022-09-02T00:00:44;2.80;;;1.33;;
74293;SDS011;62688;59.904;10.738;2022-09-02T00:03:12;6.65;;;1.45;;
74293;SDS011;62688;59.904;10.738;2022-09-02T00:05:38;1.90;;;1.00;;
74293;SDS011;62688;59.904;10.738;2022-09-02T00:08:04;5.22;;;1.60;;
74293;SDS011;62688;59.904;10.738;2022-09-02T00:10:33;1.55;;;1.02;;
74293;SDS011;62688;59.904;10.738;2022-09-02T00:13:01;2.97;;;1.48;;
74293;SDS011;62688;59.904;10.738;2022-09-02T00:15:27;2.80;;;1.25;;
74293;SDS011;62688;59.904;10.738;2022-09-02T00:17:53;1.98;;;1.27;;
74293;SDS011;62688;59.904;10.738;2022-09-02T00:20:18;1.85;;;1.00;;
74293;SDS011;62688;59.904;10.738;2022-09-02T00:22:44;2.60;;;1.30;;
74293;SDS011;62688;59.904;10.738;2022-09-02T00:25:10;4.15;;;1.10;;
74293;SDS011;62688;59.904;10.738;2022-09-02T00:27:39;2.85;;;1.38;;
74293;SDS011;62688;59.904;10.738;2022-09-02T00:30:05;1.73;;;1.08;;
74293;SDS011;62688;59.904;10.738;2022-09-02T00:32:31;1.92;;;1.40;;
74293;SDS011;62688;59.904;10.738;2022-09-02T00:34:57;1.85;;;1.10;;
74293;SDS011;62688;59.904;10.738;2022-09-02T00:37:25;3.63;;;1.98;;
74293;SDS011;62688;59.904;10.738;2022-09-02T00:39:52;1.10;;;0.98;;
74293;SDS011;62688;59.904;10.738;2022-09-02T00:42:20;2.60;;;1.10;;
74293;SDS011;62688;59.904;10.738;2022-09-02T00:44:48;2.10;;;1.10;;
74293;SDS011;62688;59.904;10.738;2022-09-02T00:47:14;1.38;;;1.27;;
74293;SDS011;62688;59.904;10.738;2022-09-02T00:49:41;1.42;;;0.98;;
74293;SDS011;62688;59.904;10.738;2022-09-02T00:52:15;1.67;;;1.10;;
74293;SDS011;62688;59.904;10.738;2022-09-02T00:54:52;4.68;;;1.25;;
74293;SDS011;62688;59.904;10.738;2022-09-02T00:57:26;2.75;;;1.30;;
74293;SDS011;62688;59.904;10.738;2022-09-02T01:02:26;2.95;;;0.90;;
74293;SDS011;62688;59.904;10.738;2022-09-02T01:04:53;1.63;;;0.85;;
74293;SDS011;62688;59.904;10.738;2022-09-02T01:07:20;1.13;;;0.80;;
74293;SDS011;62688;59.904;10.738;2022-09-02T01:09:47;1.38;;;0.90;;
74293;SDS011;62688;59.904;10.738;2022-09-02T01:12:15;0.68;;;0.68;;
74293;SDS011;62688;59.904;10.738;2022-09-02T01:14:40;1.65;;;1.02;;
74293;SDS011;62688;59.904;10.738;2022-09-02T01:17:07;3.17;;;1.25;;
74293;SDS011;62688;59.904;10.738;2022-09-02T01:19:34;4.18;;;1.30;;
74293;SDS011;62688;59.904;10.738;2022-09-02T01:22:25;1.65;;;0.90;;
74293;SDS011;62688;59.904;10.738;2022-09-02T01:27:46;0.65;;;0.63;;
74293;SDS011;62688;59.904;10.738;2022-09-02T01:30:14;4.75;;;0.98;;
74293;SDS011;62688;59.904;10.738;2022-09-02T01:32:41;1.13;;;1.00;;
74293;SDS011;62688;59.904;10.738;2022-09-02T01:35:07;0.80;;;0.70;;
74293;SDS011;62688;59.904;10.738;2022-09-02T01:37:33;0.95;;;0.80;;
74293;SDS011;62688;59.904;10.738;2022-09-02T01:39:59;1.90;;;0.98;;
74293;SDS011;62688;59.904;10.738;2022-09-02T01:42:25;1.45;;;0.90;;
74293;SDS011;62688;59.904;10.738;2022-09-02T01:44:50;3.13;;;0.98;;
74293;SDS011;62688;59.904;10.738;2022-09-02T01:47:18;4.97;;;0.80;;
74293;SDS011;62688;59.904;10.738;2022-09-02T01:49:46;1.73;;;1.02;;
74293;SDS011;62688;59.904;10.738;2022-09-02T01:52:13;1.42;;;1.10;;
74293;SDS011;62688;59.904;10.738;2022-09-02T01:54:39;3.80;;;1.00;;
74293;SDS011;62688;59.904;10.738;2022-09-02T01:57:05;3.72;;;1.20;;
74293;SDS011;62688;59.904;10.738;2022-09-02T01:59:31;3.90;;;1.00;;
74293;SDS011;62688;59.904;10.738;2022-09-02T02:01:56;2.80;;;1.13;;
74293;SDS011;62688;59.904;10.738;2022-09-02T02:04:22;1.23;;;1.00;;
74293;SDS011;62688;59.904;10.738;2022-09-02T02:06:49;1.77;;;1.20;;
74293;SDS011;62688;59.904;10.738;2022-09-02T02:09:15;1.13;;;0.80;;
74293;SDS011;62688;59.904;10.738;2022-09-02T02:11:41;2.67;;;1.02;;
74293;SDS011;62688;59.904;10.738;2022-09-02T02:14:07;0.80;;;0.70;;
74293;SDS011;62688;59.904;10.738;2022-09-02T02:16:33;1.20;;;0.90;;
74293;SDS011;62688;59.904;10.738;2022-09-02T02:18:59;2.05;;;0.93;;
74293;SDS011;62688;59.904;10.738;2022-09-02T02:21:24;2.35;;;1.33;;
74293;SDS011;62688;59.904;10.738;2022-09-02T02:23:50;1.73;;;1.13;;
74293;SDS011;62688;59.904;10.738;2022-09-02T02:26:17;2.08;;;0.90;;
74293;SDS011;62688;59.904;10.738;2022-09-02T02:28:43;1.90;;;1.10;;
74293;SDS011;62688;59.904;10.738;2022-09-02T02:31:08;3.55;;;1.55;;
74293;SDS011;62688;59.904;10.738;2022-09-02T02:33:34;1.85;;;1.10;;
74293;SDS011;62688;59.904;10.738;2022-09-02T02:36:01;2.22;;;1.30;;
74293;SDS011;62688;59.904;10.738;2022-09-02T02:38:28;1.33;;;1.05;;
74293;SDS011;62688;59.904;10.738;2022-09-02T02:40:56;1.80;;;1.05;;
74293;SDS011;62688;59.904;10.738;2022-09-02T02:43:25;3.75;;;0.88;;
74293;SDS011;62688;59.904;10.738;2022-09-02T02:45:51;2.53;;;1.13;;
74293;SDS011;62688;59.904;10.738;2022-09-02T02:48:18;2.25;;;1.10;;
74293;SDS011;62688;59.904;10.738;2022-09-02T02:50:44;6.43;;;1.20;;
74293;SDS011;62688;59.904;10.738;2022-09-02T02:53:10;1.60;;;1.10;;
74293;SDS011;62688;59.904;10.738;2022-09-02T02:55:37;3.63;;;1.05;;
74293;SDS011;62688;59.904;10.738;2022-09-02T02:58:03;1.80;;;1.23;;
74293;SDS011;62688;59.904;10.738;2022-09-02T03:00:29;2.38;;;1.10;;
74293;SDS011;62688;59.904;10.738;2022-09-02T03:02:57;1.60;;;1.02;;
74293;SDS011;62688;59.904;10.738;2022-09-02T03:05:25;0.73;;;0.73;;
74293;SDS011;62688;59.904;10.738;2022-09-02T03:07:51;2.58;;;0.90;;
74293;SDS011;62688;59.904;10.738;2022-09-02T03:10:17;1.20;;;1.10;;
74293;SDS011;62688;59.904;10.738;2022-09-02T03:12:43;2.38;;;1.15;;
74293;SDS011;62688;59.904;10.738;2022-09-02T03:15:12;1.02;;;0.90;;
74293;SDS011;62688;59.904;10.738;2022-09-02T03:17:40;2.58;;;0.80;;
74293;SDS011;62688;59.904;10.738;2022-09-02T03:20:06;1.92;;;0.93;;
74293;SDS011;62688;59.904;10.738;2022-09-02T03:22:32;1.75;;;0.93;;
74293;SDS011;62688;59.904;10.738;2022-09-02T03:25:00;0.90;;;0.90;;
74293;SDS011;62688;59.904;10.738;2022-09-02T03:27:25;2.25;;;0.90;;
74293;SDS011;62688;59.904;10.738;2022-09-02T03:29:51;2.80;;;0.90;;
74293;SDS011;62688;59.904;10.738;2022-09-02T03:32:17;3.58;;;1.20;;
74293;SDS011;62688;59.904;10.738;2022-09-02T03:34:42;2.58;;;1.23;;
74293;SDS011;62688;59.904;10.738;2022-09-02T03:37:08;2.25;;;1.13;;
74293;SDS011;62688;59.904;10.738;2022-09-02T03:39:35;1.42;;;0.90;;
74293;SDS011;62688;59.904;10.738;2022-09-02T03:42:01;2.75;;;1.00;;
74293;SDS011;62688;59.904;10.738;2022-09-02T03:44:27;2.40;;;1.08;;
74293;SDS011;62688;59.904;10.738;2022-09-02T03:46:53;0.93;;;0.90;;
74293;SDS011;62688;59.904;10.738;2022-09-02T03:49:18;2.65;;;1.10;;
74293;SDS011;62688;59.904;10.738;2022-09-02T03:51:44;1.20;;;0.95;;
74293;SDS011;62688;59.904;10.738;2022-09-02T03:54:10;3.58;;;1.50;;
74293;SDS011;62688;59.904;10.738;2022-09-02T03:56:35;3.65;;;2.28;;
74293;SDS011;62688;59.904;10.738;2022-09-02T03:59:01;1.23;;;1.10;;
74293;SDS011;62688;59.904;10.738;2022-09-02T04:01:27;2.47;;;1.20;;
74293;SDS011;62688;59.904;10.738;2022-09-02T04:03:53;2.40;;;1.75;;
74293;SDS011;62688;59.904;10.738;2022-09-02T04:06:21;2.47;;;1.35;;
74293;SDS011;62688;59.904;10.738;2022-09-02T04:08:49;2.20;;;1.10;;
74293;SDS011;62688;59.904;10.738;2022-09-02T04:11:17;2.08;;;1.30;;
74293;SDS011;62688;59.904;10.738;2022-09-02T04:13:44;1.90;;;1.20;;
74293;SDS011;62688;59.904;10.738;2022-09-02T04:16:16;1.10;;;1.00;;
74293;SDS011;62688;59.904;10.738;2022-09-02T04:18:44;2.30;;;1.15;;
74293;SDS011;62688;59.904;10.738;2022-09-02T04:21:10;1.33;;;1.20;;
74293;SDS011;62688;59.904;10.738;2022-09-02T04:23:37;2.22;;;1.30;;
74293;SDS011;62688;59.904;10.738;2022-09-02T04:26:04;3.08;;;1.40;;
74293;SDS011;62688;59.904;10.738;2022-09-02T04:28:30;1.63;;;0.90;;
74293;SDS011;62688;59.904;10.738;2022-09-02T04:30:56;1.02;;;0.93;;
74293;SDS011;62688;59.904;10.738;2022-09-02T04:33:22;2.45;;;1.05;;
74293;SDS011;62688;59.904;10.738;2022-09-02T04:35:47;3.67;;;1.02;;
74293;SDS011;62688;59.904;10.738;2022-09-02T04:38:14;4.38;;;1.13;;
74293;SDS011;62688;59.904;10.738;2022-09-02T04:40:41;1.70;;;1.17;;
74293;SDS011;62688;59.904;10.738;2022-09-02T04:43:08;2.13;;;1.20;;
74293;SDS011;62688;59.904;10.738;2022-09-02T04:45:37;2.83;;;1.38;;
74293;SDS011;62688;59.904;10.738;2022-09-02T04:48:05;4.00;;;1.40;;
74293;SDS011;62688;59.904;10.738;2022-09-02T04:50:30;1.38;;;1.08;;
74293;SDS011;62688;59.904;10.738;2022-09-02T04:52:56;2.88;;;1.00;;
74293;SDS011;62688;59.904;10.738;2022-09-02T04:55:22;2.97;;;0.95;;
74293;SDS011;62688;59.904;10.738;2022-09-02T04:57:48;2.15;;;1.30;;
74293;SDS011;62688;59.904;10.738;2022-09-02T05:00:13;16.90;;;2.28;;
74293;SDS011;62688;59.904;10.738;2022-09-02T05:02:39;2.53;;;1.40;;
74293;SDS011;62688;59.904;10.738;2022-09-02T05:05:05;2.85;;;1.88;;
74293;SDS011;62688;59.904;10.738;2022-09-02T05:07:34;3.30;;;1.52;;
74293;SDS011;62688;59.904;10.738;2022-09-02T05:10:00;5.18;;;1.42;;
74293;SDS011;62688;59.904;10.738;2022-09-02T05:12:27;0.80;;;0.80;;
74293;SDS011;62688;59.904;10.738;2022-09-02T05:14:53;1.90;;;1.10;;
74293;SDS011;62688;59.904;10.738;2022-09-02T05:17:21;2.65;;;1.00;;
74293;SDS011;62688;59.904;10.738;2022-09-02T05:19:47;2.28;;;0.90;;
74293;SDS011;62688;59.904;10.738;2022-09-02T05:22:13;3.40;;;1.00;;
74293;SDS011;62688;59.904;10.738;2022-09-02T05:24:39;4.47;;;1.02;;
74293;SDS011;62688;59.904;10.738;2022-09-02T05:27:06;3.33;;;1.10;;
74293;SDS011;62688;59.904;10.738;2022-09-02T05:29:32;1.80;;;1.02;;
74293;SDS011;62688;59.904;10.738;2022-09-02T05:31:58;2.28;;;1.13;;
74293;SDS011;62688;59.904;10.738;2022-09-02T05:34:24;2.95;;;0.85;;
74293;SDS011;62688;59.904;10.738;2022-09-02T05:36:50;2.88;;;1.50;;
74293;SDS011;62688;59.904;10.738;2022-09-02T05:39:16;1.20;;;0.90;;
74293;SDS011;62688;59.904;10.738;2022-09-02T05:41:42;6.03;;;1.02;;
74293;SDS011;62688;59.904;10.738;2022-09-02T05:44:07;5.63;;;1.35;;
74293;SDS011;62688;59.904;10.738;2022-09-02T05:46:34;1.25;;;0.90;;
74293;SDS011;62688;59.904;10.738;2022-09-02T05:49:00;2.65;;;1.13;;
74293;SDS011;62688;59.904;10.738;2022-09-02T05:54:16;1.38;;;0.93;;
74293;SDS011;62688;59.904;10.738;2022-09-02T05:56:53;1.48;;;1.20;;
74293;SDS011;62688;59.904;10.738;2022-09-02T05:59:22;2.25;;;1.10;;
74293;SDS011;62688;59.904;10.738;2022-09-02T06:01:49;2.30;;;0.90;;
74293;SDS011;62688;59.904;10.738;2022-09-02T06:04:15;6.38;;;1.20;;
74293;SDS011;62688;59.904;10.738;2022-09-02T06:06:41;2.30;;;0.95;;
74293;SDS011;62688;59.904;10.738;2022-09-02T06:11:58;1.60;;;0.90;;
74293;SDS011;62688;59.904;10.738;2022-09-02T06:14:24;2.33;;;1.45;;
74293;SDS011;62688;59.904;10.738;2022-09-02T06:16:51;1.85;;;0.98;;
74293;SDS011;62688;59.904;10.738;2022-09-02T06:19:19;2.17;;;1.20;;
74293;SDS011;62688;59.904;10.738;2022-09-02T06:21:45;1.38;;;0.90;;
74293;SDS011;62688;59.904;10.738;2022-09-02T06:24:12;3.53;;;1.05;;
74293;SDS011;62688;59.904;10.738;2022-09-02T06:26:38;2.22;;;0.80;;
74293;SDS011;62688;59.904;10.738;2022-09-02T06:29:05;4.32;;;1.30;;
74293;SDS011;62688;59.904;10.738;2022-09-02T06:31:32;2.35;;;0.98;;
74293;SDS011;62688;59.904;10.738;2022-09-02T06:33:57;4.00;;;1.17;;
74293;SDS011;62688;59.904;10.738;2022-09-02T06:36:25;8.52;;;1.45;;
74293;SDS011;62688;59.904;10.738;2022-09-02T06:38:53;8.48;;;1.30;;
74293;SDS011;62688;59.904;10.738;2022-09-02T06:41:22;5.05;;;1.15;;
74293;SDS011;62688;59.904;10.738;2022-09-02T06:43:57;2.05;;;1.50;;
74293;SDS011;62688;59.904;10.738;2022-09-02T06:46:25;3.42;;;1.08;;
74293;SDS011;62688;59.904;10.738;2022-09-02T06:48:55;5.40;;;1.20;;
74293;SDS011;62688;59.904;10.738;2022-09-02T06:51:22;5.15;;;1.02;;
74293;SDS011;62688;59.904;10.738;2022-09-02T06:53:50;2.00;;;0.88;;
74293;SDS011;62688;59.904;10.738;2022-09-02T06:56:16;3.50;;;1.30;;
74293;SDS011;62688;59.904;10.738;2022-09-02T06:58:42;2.65;;;1.10;;
74293;SDS011;62688;59.904;10.738;2022-09-02T07:01:15;7.05;;;1.20;;
74293;SDS011;62688;59.904;10.738;2022-09-02T07:03:46;1.25;;;1.00;;
74293;SDS011;62688;59.904;10.738;2022-09-02T07:06:34;7.35;;;1.20;;
74293;SDS011;62688;59.904;10.738;2022-09-02T07:09:02;4.55;;;1.40;;
74293;SDS011;62688;59.904;10.738;2022-09-02T07:11:28;3.17;;;1.17;;
74293;SDS011;62688;59.904;10.738;2022-09-02T07:13:54;6.95;;;1.20;;
74293;SDS011;62688;59.904;10.738;2022-09-02T07:16:20;1.10;;;0.80;;
74293;SDS011;62688;59.904;10.738;2022-09-02T07:18:45;1.75;;;0.88;;
74293;SDS011;62688;59.904;10.738;2022-09-02T07:21:11;4.20;;;0.80;;
74293;SDS011;62688;59.904;10.738;2022-09-02T07:23:37;1.85;;;1.05;;
74293;SDS011;62688;59.904;10.738;2022-09-02T07:26:03;4.82;;;1.38;;
74293;SDS011;62688;59.904;10.738;2022-09-02T07:28:29;2.97;;;1.10;;
74293;SDS011;62688;59.904;10.738;2022-09-02T07:30:54;5.88;;;0.82;;
74293;SDS011;62688;59.904;10.738;2022-09-02T07:33:20;1.30;;;1.05;;
74293;SDS011;62688;59.904;10.738;2022-09-02T07:35:48;1.10;;;0.85;;
74293;SDS011;62688;59.904;10.738;2022-09-02T07:38:15;5.07;;;1.17;;
74293;SDS011;62688;59.904;10.738;2022-09-02T07:40:41;1.35;;;0.65;;
74293;SDS011;62688;59.904;10.738;2022-09-02T07:43:08;0.93;;;0.57;;
74293;SDS011;62688;59.904;10.738;2022-09-02T07:45:35;10.40;;;2.22;;
74293;SDS011;62688;59.904;10.738;2022-09-02T07:48:02;3.20;;;1.08;;
74293;SDS011;62688;59.904;10.738;2022-09-02T07:50:31;3.25;;;1.15;;
74293;SDS011;62688;59.904;10.738;2022-09-02T07:52:57;3.13;;;1.52;;
74293;SDS011;62688;59.904;10.738;2022-09-02T07:55:23;5.95;;;2.33;;
74293;SDS011;62688;59.904;10.738;2022-09-02T07:57:50;5.25;;;1.52;;
74293;SDS011;62688;59.904;10.738;2022-09-02T08:00:18;3.50;;;1.40;;
74293;SDS011;62688;59.904;10.738;2022-09-02T08:02:46;17.20;;;2.38;;
74293;SDS011;62688;59.904;10.738;2022-09-02T08:05:13;4.90;;;1.40;;
74293;SDS011;62688;59.904;10.738;2022-09-02T08:07:39;2.80;;;1.15;;
74293;SDS011;62688;59.904;10.738;2022-09-02T08:10:06;3.28;;;1.20;;
74293;SDS011;62688;59.904;10.738;2022-09-02T08:12:34;5.53;;;1.52;;
74293;SDS011;62688;59.904;10.738;2022-09-02T08:15:01;4.35;;;1.17;;
74293;SDS011;62688;59.904;10.738;2022-09-02T08:17:27;4.43;;;1.17;;
74293;SDS011;62688;59.904;10.738;2022-09-02T08:19:52;3.60;;;1.45;;
74293;SDS011;62688;59.904;10.738;2022-09-02T08:22:18;4.13;;;1.35;;
74293;SDS011;62688;59.904;10.738;2022-09-02T08:24:44;5.90;;;1.60;;
74293;SDS011;62688;59.904;10.738;2022-09-02T08:27:09;3.72;;;1.55;;
74293;SDS011;62688;59.904;10.738;2022-09-02T08:29:35;5.15;;;1.10;;
74293;SDS011;62688;59.904;10.738;2022-09-02T08:32:01;3.38;;;1.23;;
74293;SDS011;62688;59.904;10.738;2022-09-02T08:34:26;5.53;;;2.13;;
74293;SDS011;62688;59.904;10.738;2022-09-02T08:36:53;18.95;;;2.08;;
74293;SDS011;62688;59.904;10.738;2022-09-02T08:39:19;6.18;;;1.38;;
74293;SDS011;62688;59.904;10.738;2022-09-02T08:41:46;2.10;;;1.25;;
74293;SDS011;62688;59.904;10.738;2022-09-02T08:44:26;3.05;;;1.83;;
74293;SDS011;62688;59.904;10.738;2022-09-02T08:46:55;2.85;;;1.65;;
74293;SDS011;62688;59.904;10.738;2022-09-02T08:49:29;1.33;;;0.85;;
74293;SDS011;62688;59.904;10.738;2022-09-02T08:52:00;3.13;;;1.27;;
74293;SDS011;62688;59.904;10.738;2022-09-02T08:57:19;4.40;;;1.52;;
74293;SDS011;62688;59.904;10.738;2022-09-02T08:59:49;1.30;;;0.90;;
74293;SDS011;62688;59.904;10.738;2022-09-02T09:10:20;1.88;;;0.95;;
74293;SDS011;62688;59.904;10.738;2022-09-02T09:15:58;2.15;;;1.20;;
74293;SDS011;62688;59.904;10.738;2022-09-02T09:18:34;2.35;;;0.80;;
74293;SDS011;62688;59.904;10.738;2022-09-02T09:21:03;1.90;;;0.77;;
74293;SDS011;62688;59.904;10.738;2022-09-02T09:23:35;1.48;;;0.90;;
74293;SDS011;62688;59.904;10.738;2022-09-02T09:28:40;5.78;;;1.80;;
74293;SDS011;62688;59.904;10.738;2022-09-02T09:31:09;1.98;;;0.80;;
74293;SDS011;62688;59.904;10.738;2022-09-02T09:33:36;0.90;;;0.63;;
74293;SDS011;62688;59.904;10.738;2022-09-02T09:36:02;1.10;;;0.75;;
74293;SDS011;62688;59.904;10.738;2022-09-02T09:38:33;1.17;;;0.70;;
74293;SDS011;62688;59.904;10.738;2022-09-02T09:43:35;1.92;;;1.00;;
74293;SDS011;62688;59.904;10.738;2022-09-02T09:46:00;0.77;;;0.73;;
74293;SDS011;62688;59.904;10.738;2022-09-02T09:48:50;0.98;;;0.77;;
74293;SDS011;62688;59.904;10.738;2022-09-02T09:51:16;0.70;;;0.68;;
74293;SDS011;62688;59.904;10.738;2022-09-02T09:53:42;0.85;;;0.85;;
74293;SDS011;62688;59.904;10.738;2022-09-02T10:03:41;0.60;;;0.60;;
74293;SDS011;62688;59.904;10.738;2022-09-02T10:06:17;0.57;;;0.52;;
74293;SDS011;62688;59.904;10.738;2022-09-02T10:08:55;1.10;;;0.50;;
74293;SDS011;62688;59.904;10.738;2022-09-02T10:11:53;0.60;;;0.45;;
74293;SDS011;62688;59.904;10.738;2022-09-02T10:14:47;0.85;;;0.75;;
74293;SDS011;62688;59.904;10.738;2022-09-02T10:28:01;2.25;;;0.65;;
74293;SDS011;62688;59.904;10.738;2022-09-02T10:30:39;0.73;;;0.60;;
74293;SDS011;62688;59.904;10.738;2022-09-02T10:42:13;0.40;;;0.40;;
74293;SDS011;62688;59.904;10.738;2022-09-02T10:44:53;0.40;;;0.40;;
74293;SDS011;62688;59.904;10.738;2022-09-02T10:47:36;1.20;;;0.65;;
74293;SDS011;62688;59.904;10.738;2022-09-02T10:50:12;1.85;;;0.80;;
74293;SDS011;62688;59.904;10.738;2022-09-02T10:56:02;0.50;;;0.50;;
74293;SDS011;62688;59.904;10.738;2022-09-02T10:58:28;1.63;;;0.90;;
74293;SDS011;62688;59.904;10.738;2022-09-02T11:01:21;1.10;;;0.52;;
74293;SDS011;62688;59.904;10.738;2022-09-02T11:04:02;0.75;;;0.52;;
74293;SDS011;62688;59.904;10.738;2022-09-02T11:06:38;0.55;;;0.50;;
74293;SDS011;62688;59.904;10.738;2022-09-02T11:11:46;2.50;;;0.60;;
74293;SDS011;62688;59.904;10.738;2022-09-02T11:14:21;0.50;;;0.50;;
74293;SDS011;62688;59.904;10.738;2022-09-02T11:19:42;0.60;;;0.60;;
74293;SDS011;62688;59.904;10.738;2022-09-02T11:22:24;2.22;;;0.65;;
74293;SDS011;62688;59.904;10.738;2022-09-02T11:25:20;2.40;;;0.70;;
74293;SDS011;62688;59.904;10.738;2022-09-02T11:27:53;0.68;;;0.50;;
74293;SDS011;62688;59.904;10.738;2022-09-02T11:30:44;0.50;;;0.45;;
74293;SDS011;62688;59.904;10.738;2022-09-02T11:36:20;1.17;;;0.40;;
74293;SDS011;62688;59.904;10.738;2022-09-02T11:47:38;0.40;;;0.40;;
74293;SDS011;62688;59.904;10.738;2022-09-02T11:55:35;0.57;;;0.38;;
74293;SDS011;62688;59.904;10.738;2022-09-02T11:58:07;1.45;;;0.40;;
74293;SDS011;62688;59.904;10.738;2022-09-02T12:00:33;1.25;;;0.50;;
74293;SDS011;62688;59.904;10.738;2022-09-02T12:03:21;0.50;;;0.43;;
74293;SDS011;62688;59.904;10.738;2022-09-02T12:14:03;0.50;;;0.50;;
74293;SDS011;62688;59.904;10.738;2022-09-02T12:16:43;0.43;;;0.43;;
74293;SDS011;62688;59.904;10.738;2022-09-02T12:19:27;0.40;;;0.40;;
74293;SDS011;62688;59.904;10.738;2022-09-02T12:27:24;0.75;;;0.40;;
74293;SDS011;62688;59.904;10.738;2022-09-02T12:29:56;0.45;;;0.45;;
74293;SDS011;62688;59.904;10.738;2022-09-02T12:35:27;0.95;;;0.32;;
74293;SDS011;62688;59.904;10.738;2022-09-02T12:38:21;0.40;;;0.40;;
74293;SDS011;62688;59.904;10.738;2022-09-02T12:46:11;3.60;;;0.50;;
74293;SDS011;62688;59.904;10.738;2022-09-02T12:48:47;0.57;;;0.57;;
74293;SDS011;62688;59.904;10.738;2022-09-02T12:57:07;0.45;;;0.45;;
74293;SDS011;62688;59.904;10.738;2022-09-02T12:59:38;1.05;;;0.95;;
74293;SDS011;62688;59.904;10.738;2022-09-02T13:31:28;0.82;;;0.60;;
74293;SDS011;62688;59.904;10.738;2022-09-02T13:33:58;0.68;;;0.50;;
74293;SDS011;62688;59.904;10.738;2022-09-02T13:36:36;0.60;;;0.60;;
74293;SDS011;62688;59.904;10.738;2022-09-02T13:39:11;2.38;;;0.90;;
74293;SDS011;62688;59.904;10.738;2022-09-02T13:41:44;0.80;;;0.68;;
74293;SDS011;62688;59.904;10.738;2022-09-02T13:44:11;0.57;;;0.40;;
74293;SDS011;62688;59.904;10.738;2022-09-02T13:46:45;2.58;;;0.70;;
74293;SDS011;62688;59.904;10.738;2022-09-02T13:49:19;1.40;;;0.50;;
74293;SDS011;62688;59.904;10.738;2022-09-02T13:51:51;1.17;;;0.70;;
74293;SDS011;62688;59.904;10.738;2022-09-02T13:54:32;1.90;;;0.63;;
74293;SDS011;62688;59.904;10.738;2022-09-02T13:57:04;2.10;;;0.60;;
74293;SDS011;62688;59.904;10.738;2022-09-02T13:59:37;1.98;;;0.70;;
74293;SDS011;62688;59.904;10.738;2022-09-02T14:05:40;0.60;;;0.40;;
74293;SDS011;62688;59.904;10.738;2022-09-02T14:07:48;1.67;;;0.50;;
74293;SDS011;62688;59.904;10.738;2022-09-02T14:10:18;5.32;;;1.08;;
74293;SDS011;62688;59.904;10.738;2022-09-02T14:12:46;1.95;;;0.60;;
74293;SDS011;62688;59.904;10.738;2022-09-02T14:15:14;3.22;;;0.98;;
74293;SDS011;62688;59.904;10.738;2022-09-02T14:17:41;1.65;;;0.82;;
74293;SDS011;62688;59.904;10.738;2022-09-02T14:20:08;5.72;;;0.75;;
74293;SDS011;62688;59.904;10.738;2022-09-02T14:22:35;3.97;;;0.45;;
74293;SDS011;62688;59.904;10.738;2022-09-02T14:25:08;2.00;;;0.73;;
74293;SDS011;62688;59.904;10.738;2022-09-02T14:27:37;0.55;;;0.55;;
74293;SDS011;62688;59.904;10.738;2022-09-02T14:30:04;0.40;;;0.40;;
74293;SDS011;62688;59.904;10.738;2022-09-02T14:32:33;5.22;;;1.15;;
74293;SDS011;62688;59.904;10.738;2022-09-02T14:35:11;1.95;;;0.88;;
74293;SDS011;62688;59.904;10.738;2022-09-02T14:37:50;0.50;;;0.50;;
74293;SDS011;62688;59.904;10.738;2022-09-02T14:43:10;0.57;;;0.47;;
74293;SDS011;62688;59.904;10.738;2022-09-02T14:45:38;0.30;;;0.30;;
74293;SDS011;62688;59.904;10.738;2022-09-02T14:48:24;0.43;;;0.40;;
74293;SDS011;62688;59.904;10.738;2022-09-02T14:50:57;1.27;;;0.40;;
74293;SDS011;62688;59.904;10.738;2022-09-02T14:53:25;0.30;;;0.30;;
74293;SDS011;62688;59.904;10.738;2022-09-02T14:55:54;0.28;;;0.28;;
74293;SDS011;62688;59.904;10.738;2022-09-02T14:58:21;0.20;;;0.20;;
74293;SDS011;62688;59.904;10.738;2022-09-02T15:00:49;0.40;;;0.40;;
74293;SDS011;62688;59.904;10.738;2022-09-02T15:03:18;0.65;;;0.30;;
74293;SDS011;62688;59.904;10.738;2022-09-02T15:05:44;0.60;;;0.60;;
74293;SDS011;62688;59.904;10.738;2022-09-02T15:08:11;2.17;;;0.40;;
74293;SDS011;62688;59.904;10.738;2022-09-02T15:10:37;1.63;;;0.30;;
74293;SDS011;62688;59.904;10.738;2022-09-02T15:13:11;0.87;;;0.40;;
74293;SDS011;62688;59.904;10.738;2022-09-02T15:15:57;0.50;;;0.43;;
74293;SDS011;62688;59.904;10.738;2022-09-02T15:18:23;0.40;;;0.35;;
74293;SDS011;62688;59.904;10.738;2022-09-02T15:20:50;0.38;;;0.30;;
74293;SDS011;62688;59.904;10.738;2022-09-02T15:23:16;0.30;;;0.30;;
74293;SDS011;62688;59.904;10.738;2022-09-02T15:25:42;0.68;;;0.40;;
74293;SDS011;62688;59.904;10.738;2022-09-02T15:28:08;0.68;;;0.68;;
74293;SDS011;62688;59.904;10.738;2022-09-02T15:30:35;0.30;;;0.30;;
74293;SDS011;62688;59.904;10.738;2022-09-02T15:33:01;0.93;;;0.30;;
74293;SDS011;62688;59.904;10.738;2022-09-02T15:35:30;0.65;;;0.40;;
74293;SDS011;62688;59.904;10.738;2022-09-02T15:37:57;0.30;;;0.30;;
74293;SDS011;62688;59.904;10.738;2022-09-02T15:40:24;0.30;;;0.30;;
74293;SDS011;62688;59.904;10.738;2022-09-02T15:42:49;0.98;;;0.40;;
74293;SDS011;62688;59.904;10.738;2022-09-02T15:45:15;0.60;;;0.30;;
74293;SDS011;62688;59.904;10.738;2022-09-02T15:47:40;0.43;;;0.43;;
74293;SDS011;62688;59.904;10.738;2022-09-02T15:50:06;0.50;;;0.30;;
74293;SDS011;62688;59.904;10.738;2022-09-02T15:52:33;1.10;;;0.50;;
74293;SDS011;62688;59.904;10.738;2022-09-02T15:54:59;0.75;;;0.50;;
74293;SDS011;62688;59.904;10.738;2022-09-02T15:57:25;0.40;;;0.40;;
74293;SDS011;62688;59.904;10.738;2022-09-02T15:59:51;1.02;;;0.50;;
74293;SDS011;62688;59.904;10.738;2022-09-02T16:02:16;0.40;;;0.40;;
74293;SDS011;62688;59.904;10.738;2022-09-02T16:04:42;0.40;;;0.40;;
74293;SDS011;62688;59.904;10.738;2022-09-02T16:07:08;0.43;;;0.40;;
74293;SDS011;62688;59.904;10.738;2022-09-02T16:09:33;0.70;;;0.43;;
74293;SDS011;62688;59.904;10.738;2022-09-02T16:11:59;0.63;;;0.40;;
74293;SDS011;62688;59.904;10.738;2022-09-02T16:14:25;0.68;;;0.50;;
74293;SDS011;62688;59.904;10.738;2022-09-02T16:16:52;1.58;;;0.50;;
74293;SDS011;62688;59.904;10.738;2022-09-02T16:19:19;0.43;;;0.43;;
74293;SDS011;62688;59.904;10.738;2022-09-02T16:21:46;0.65;;;0.40;;
74293;SDS011;62688;59.904;10.738;2022-09-02T16:24:12;0.30;;;0.30;;
74293;SDS011;62688;59.904;10.738;2022-09-02T16:26:39;0.55;;;0.40;;
74293;SDS011;62688;59.904;10.738;2022-09-02T16:29:09;1.17;;;0.50;;
74293;SDS011;62688;59.904;10.738;2022-09-02T16:31:39;0.65;;;0.47;;
74293;SDS011;62688;59.904;10.738;2022-09-02T16:34:07;1.10;;;0.40;;
74293;SDS011;62688;59.904;10.738;2022-09-02T16:36:35;2.45;;;0.50;;
74293;SDS011;62688;59.904;10.738;2022-09-02T16:39:04;0.43;;;0.43;;
74293;SDS011;62688;59.904;10.738;2022-09-02T16:41:32;0.47;;;0.40;;
74293;SDS011;62688;59.904;10.738;2022-09-02T16:44:03;0.30;;;0.30;;
74293;SDS011;62688;59.904;10.738;2022-09-02T16:46:31;1.27;;;0.70;;
74293;SDS011;62688;59.904;10.738;2022-09-02T16:48:57;4.13;;;0.68;;
74293;SDS011;62688;59.904;10.738;2022-09-02T16:51:24;0.60;;;0.50;;
74293;SDS011;62688;59.904;10.738;2022-09-02T16:53:53;0.63;;;0.50;;
74293;SDS011;62688;59.904;10.738;2022-09-02T16:56:20;0.47;;;0.47;;
74293;SDS011;62688;59.904;10.738;2022-09-02T16:58:47;5.82;;;0.70;;
74293;SDS011;62688;59.904;10.738;2022-09-02T17:01:14;1.20;;;0.68;;
74293;SDS011;62688;59.904;10.738;2022-09-02T17:03:39;0.60;;;0.50;;
74293;SDS011;62688;59.904;10.738;2022-09-02T17:06:06;0.93;;;0.50;;
74293;SDS011;62688;59.904;10.738;2022-09-02T17:08:32;0.30;;;0.30;;